createdAt,value
2023-01-04T00:01:56.855Z,96.70
2023-01-04T00:04:42.622Z,97.00
2023-01-04T00:07:31.665Z,96.80
2023-01-04T00:10:17.711Z,96.60
2023-01-04T00:13:03.513Z,96.70
2023-01-04T00:15:49.648Z,96.60
2023-01-04T00:18:36.616Z,96.60
2023-01-04T00:21:27.152Z,96.10
2023-01-04T00:24:15.319Z,96.00
2023-01-04T00:27:01.324Z,95.90
2023-01-04T00:29:47.294Z,96.10
2023-01-04T00:32:33.582Z,95.80
2023-01-04T00:35:44.073Z,95.90
2023-01-04T00:38:25.307Z,95.90
2023-01-04T00:41:28.274Z,95.70
2023-01-04T00:44:21.319Z,96.30
2023-01-04T00:47:07.275Z,96.10
2023-01-04T00:49:53.335Z,96.30
2023-01-04T00:52:39.355Z,96.10
2023-01-04T00:55:25.351Z,96.20
2023-01-04T00:58:11.753Z,96.20
2023-01-04T01:01:04.031Z,96.20
2023-01-04T01:03:54.939Z,96.10
2023-01-04T01:06:41.223Z,95.80
2023-01-04T01:09:27.193Z,95.50
2023-01-04T01:12:13.007Z,95.70
2023-01-04T01:15:00.747Z,95.50
2023-01-04T01:17:46.822Z,95.60
2023-01-04T01:20:32.902Z,95.50
2023-01-04T01:23:18.816Z,95.90
2023-01-04T01:26:05.836Z,96.10
2023-01-04T01:28:52.107Z,95.90
2023-01-04T01:31:37.981Z,95.20
2023-01-04T01:34:23.937Z,95.20
2023-01-04T01:37:09.911Z,95.20
2023-01-04T01:39:56.070Z,95.20
2023-01-04T01:42:42.071Z,94.80
2023-01-04T01:45:32.625Z,95.10
2023-01-04T01:48:22.367Z,95.70
2023-01-04T01:51:08.770Z,96.40
2023-01-04T01:54:01.700Z,97.10
2023-01-04T01:56:48.725Z,97.50
2023-01-04T01:59:35.830Z,97.80
2023-01-04T02:02:22.285Z,97.80
2023-01-04T02:05:08.937Z,97.80
2023-01-04T02:07:55.065Z,97.90
2023-01-04T02:10:41.051Z,98.00
2023-01-04T02:13:50.202Z,98.10
2023-01-04T02:16:42.299Z,97.80
2023-01-04T02:19:47.238Z,98.00
2023-01-04T02:22:42.246Z,98.40
2023-01-04T02:25:51.237Z,99.00
2023-01-04T02:28:56.002Z,99.40
2023-01-04T02:31:45.384Z,99.40
2023-01-04T02:34:30.995Z,99.50
2023-01-04T02:37:18.756Z,99.40
2023-01-04T02:40:04.607Z,99.50
2023-01-04T02:43:21.611Z,99.90
2023-01-04T02:46:14.497Z,99.90
2023-01-04T02:49:20.305Z,99.80
2023-01-04T02:52:06.148Z,99.30
2023-01-04T02:54:54.006Z,99.30
2023-01-04T02:57:56.849Z,99.70
2023-01-04T03:01:10.686Z,99.90
2023-01-04T03:04:30.465Z,99.90
2023-01-04T03:07:16.096Z,99.90
2023-01-04T03:10:15.923Z,99.90
2023-01-04T03:13:07.943Z,99.90
2023-01-04T03:15:55.029Z,99.90
2023-01-04T03:18:43.201Z,99.90
2023-01-04T03:21:28.983Z,99.90
2023-01-04T03:24:33.471Z,99.90
2023-01-04T03:27:38.422Z,99.90
2023-01-04T03:30:45.901Z,99.90
2023-01-04T03:33:50.880Z,99.90
2023-01-04T03:36:46.468Z,99.90
2023-01-04T03:40:00.488Z,99.90
2023-01-04T03:43:09.587Z,99.90
2023-01-04T03:46:16.632Z,99.90
2023-01-04T03:49:10.726Z,99.90
2023-01-04T03:51:58.155Z,99.90
2023-01-04T03:54:45.990Z,99.90
2023-01-04T03:57:33.472Z,99.90
2023-01-04T04:00:19.679Z,99.90
2023-01-04T04:03:07.816Z,99.90
2023-01-04T04:06:12.711Z,99.90
2023-01-04T04:08:59.277Z,99.90
2023-01-04T04:11:45.144Z,99.90
2023-01-04T04:14:31.257Z,99.90
2023-01-04T04:17:17.177Z,99.90
2023-01-04T04:20:03.114Z,99.90
2023-01-04T04:22:49.220Z,99.90
2023-01-04T04:25:35.107Z,99.90
2023-01-04T04:28:21.105Z,99.90
2023-01-04T04:31:07.593Z,99.90
2023-01-04T04:33:53.471Z,99.90
2023-01-04T04:36:39.475Z,99.90
2023-01-04T04:39:25.645Z,99.90
2023-01-04T04:42:11.624Z,99.90
2023-01-04T04:44:57.776Z,99.90
2023-01-04T04:47:43.913Z,99.90
2023-01-04T04:50:29.928Z,99.90
2023-01-04T04:53:15.945Z,99.90
2023-01-04T04:56:02.034Z,99.90
2023-01-04T04:58:48.145Z,99.90
2023-01-04T05:01:34.280Z,99.90
2023-01-04T05:04:20.285Z,99.90
2023-01-04T05:07:12.222Z,99.90
2023-01-04T05:09:58.466Z,99.90
2023-01-04T05:12:59.802Z,99.90
2023-01-04T05:15:46.862Z,99.90
2023-01-04T05:18:32.691Z,99.90
2023-01-04T05:21:20.456Z,99.90
2023-01-04T05:24:07.329Z,99.90
2023-01-04T05:26:53.061Z,99.90
2023-01-04T05:29:57.838Z,99.90
2023-01-04T05:32:44.282Z,99.90
2023-01-04T05:35:30.173Z,99.90
2023-01-04T05:38:16.754Z,99.90
2023-01-04T05:41:02.747Z,99.90
2023-01-04T05:43:48.687Z,99.90
2023-01-04T05:46:34.875Z,99.90
2023-01-04T05:49:20.957Z,99.90
2023-01-04T05:52:06.807Z,99.90
2023-01-04T05:54:52.849Z,99.90
2023-01-04T05:57:38.986Z,99.90
2023-01-04T06:00:24.863Z,99.90
2023-01-04T06:03:10.881Z,99.90
2023-01-04T06:05:56.784Z,99.90
2023-01-04T06:08:42.844Z,99.90
2023-01-04T06:11:28.903Z,99.90
2023-01-04T06:14:15.082Z,99.90
2023-01-04T06:17:01.252Z,99.90
2023-01-04T06:19:47.060Z,99.90
2023-01-04T06:22:33.470Z,99.90
2023-01-04T06:25:19.742Z,99.90
2023-01-04T06:28:05.929Z,99.90
2023-01-04T06:30:52.016Z,99.90
2023-01-04T06:33:38.613Z,99.90
2023-01-04T06:36:24.560Z,99.90
2023-01-04T06:39:10.717Z,99.90
2023-01-04T06:42:03.700Z,99.90
2023-01-04T06:44:51.887Z,99.90
2023-01-04T06:47:38.173Z,99.90
2023-01-04T06:50:24.014Z,99.90
2023-01-04T06:53:10.044Z,99.90
2023-01-04T06:55:56.024Z,99.90
2023-01-04T06:58:42.148Z,99.90
2023-01-04T07:01:28.191Z,99.90
2023-01-04T07:04:14.105Z,99.90
2023-01-04T07:07:00.139Z,99.90
2023-01-04T07:09:46.107Z,99.90
2023-01-04T07:12:32.856Z,99.90
2023-01-04T07:15:38.060Z,99.90
2023-01-04T07:18:24.609Z,99.90
2023-01-04T07:21:10.585Z,99.90
2023-01-04T07:23:56.701Z,99.90
2023-01-04T07:26:42.633Z,99.90
2023-01-04T07:29:28.627Z,99.90
2023-01-04T07:32:14.581Z,99.90
2023-01-04T07:35:00.667Z,99.90
2023-01-04T07:37:48.827Z,99.90
2023-01-04T07:40:38.404Z,99.90
2023-01-04T07:43:42.389Z,99.90
2023-01-04T07:46:28.521Z,99.90
2023-01-04T07:49:17.726Z,99.90
2023-01-04T07:52:04.146Z,99.90
2023-01-04T07:54:50.339Z,99.90
2023-01-04T07:57:36.449Z,99.40
2023-01-04T08:00:22.479Z,98.10
2023-01-04T08:03:08.697Z,96.20
2023-01-04T08:05:54.785Z,95.00
2023-01-04T08:08:40.715Z,93.60
2023-01-04T08:11:26.820Z,92.50
2023-01-04T08:14:13.079Z,91.90
2023-01-04T08:16:58.995Z,91.80
2023-01-04T08:19:46.817Z,91.40
2023-01-04T08:22:32.954Z,91.60
2023-01-04T08:25:18.876Z,91.70
2023-01-04T08:28:05.340Z,91.90
2023-01-04T08:30:51.446Z,91.40
2023-01-04T08:33:38.043Z,91.60
2023-01-04T08:36:28.145Z,92.20
2023-01-04T08:39:14.454Z,92.50
2023-01-04T08:42:14.555Z,93.20
2023-01-04T08:45:05.296Z,93.70
2023-01-04T08:47:51.106Z,94.10
2023-01-04T08:50:37.151Z,94.80
2023-01-04T08:53:23.237Z,94.60
2023-01-04T08:56:09.655Z,94.80
2023-01-04T08:58:55.680Z,95.00
2023-01-04T09:01:42.162Z,95.50
2023-01-04T09:04:28.319Z,95.80
2023-01-04T09:07:14.958Z,96.10
2023-01-04T09:10:01.021Z,96.50
2023-01-04T09:12:47.929Z,96.70
2023-01-04T09:15:34.251Z,97.00
2023-01-04T09:18:31.678Z,97.20
2023-01-04T09:21:19.816Z,97.30
2023-01-04T09:24:06.006Z,97.30
2023-01-04T09:26:51.834Z,97.40
2023-01-04T09:29:37.838Z,97.20
2023-01-04T09:32:23.884Z,95.60
2023-01-04T09:35:09.949Z,95.70
2023-01-04T09:37:56.182Z,95.50
2023-01-04T09:40:56.863Z,95.40
2023-01-04T09:43:46.919Z,94.70
2023-01-04T09:46:41.213Z,94.30
2023-01-04T09:49:47.517Z,94.10
2023-01-04T09:52:51.885Z,93.90
2023-01-04T09:55:40.713Z,93.90
2023-01-04T09:58:35.607Z,93.40
2023-01-04T10:01:29.087Z,93.70
2023-01-04T10:04:27.042Z,93.90
2023-01-04T10:07:21.954Z,93.80
2023-01-04T10:10:13.340Z,93.60
2023-01-04T10:13:12.082Z,93.20
2023-01-04T10:15:58.334Z,92.90
2023-01-04T10:22:22.097Z,92.30
2023-01-04T10:25:26.503Z,91.50
2023-01-04T10:28:18.521Z,91.40
2023-01-04T10:31:40.926Z,89.90
2023-01-04T10:34:22.523Z,90.50
2023-01-04T10:37:13.613Z,90.60
2023-01-04T10:40:00.303Z,90.30
2023-01-04T10:43:01.693Z,90.90
2023-01-04T10:45:50.731Z,90.70
2023-01-04T10:48:39.843Z,90.70
2023-01-04T10:51:35.648Z,91.10
2023-01-04T10:54:25.479Z,91.40
2023-01-04T10:57:20.531Z,91.10
2023-01-04T11:00:10.183Z,91.60
2023-01-04T11:03:06.540Z,92.00
2023-01-04T11:05:57.363Z,91.90
2023-01-04T11:08:47.657Z,91.90
2023-01-04T11:11:33.458Z,92.20
2023-01-04T11:14:19.681Z,92.20
2023-01-04T11:17:07.366Z,92.10
2023-01-04T11:19:53.762Z,91.90
2023-01-04T11:22:43.127Z,91.40
2023-01-04T11:25:36.214Z,91.60
2023-01-04T11:29:01.505Z,91.40
2023-01-04T11:31:53.622Z,91.00
2023-01-04T11:34:49.936Z,91.40
2023-01-04T11:37:37.574Z,91.20
2023-01-04T11:40:24.613Z,90.60
2023-01-04T11:43:18.745Z,91.20
2023-01-04T11:46:24.613Z,90.40
2023-01-04T11:49:20.212Z,90.40
2023-01-04T11:52:08.470Z,89.40
2023-01-04T11:54:54.564Z,90.10
2023-01-04T11:57:40.683Z,90.10
2023-01-04T12:00:26.724Z,88.20
2023-01-04T12:03:17.279Z,88.20
2023-01-04T12:06:03.535Z,88.60
2023-01-04T12:08:49.677Z,88.10
2023-01-04T12:11:36.411Z,86.90
2023-01-04T12:14:26.869Z,88.40
2023-01-04T12:17:16.322Z,87.70
2023-01-04T12:20:03.623Z,87.20
2023-01-04T12:22:49.440Z,86.90
2023-01-04T12:25:39.253Z,86.10
2023-01-04T12:28:32.509Z,85.00
2023-01-04T12:31:19.545Z,84.10
2023-01-04T12:34:15.385Z,84.70
2023-01-04T12:37:05.695Z,85.10
2023-01-04T12:39:51.908Z,83.70
2023-01-04T12:42:37.961Z,83.70
2023-01-04T12:45:24.080Z,84.10
2023-01-04T12:48:47.186Z,83.10
2023-01-04T12:51:33.833Z,83.60
2023-01-04T12:54:24.051Z,83.20
2023-01-04T12:57:16.232Z,83.40
2023-01-04T13:00:02.390Z,83.00
2023-01-04T13:03:10.080Z,82.30
2023-01-04T13:06:00.618Z,82.10
2023-01-04T13:08:48.669Z,81.20
2023-01-04T13:11:48.079Z,81.00
2023-01-04T13:14:51.170Z,81.40
2023-01-04T13:17:39.213Z,80.60
2023-01-04T13:20:26.167Z,79.30
2023-01-04T13:23:13.216Z,79.50
2023-01-04T13:26:19.261Z,80.20
2023-01-04T13:29:08.013Z,80.00
2023-01-04T13:31:54.172Z,80.10
2023-01-04T13:34:46.377Z,80.20
2023-01-04T13:37:42.335Z,79.80
2023-01-04T13:40:29.533Z,79.80
2023-01-04T13:43:15.563Z,79.90
2023-01-04T13:46:07.979Z,79.70
2023-01-04T13:48:58.073Z,78.60
2023-01-04T13:51:43.985Z,78.20
2023-01-04T13:54:33.339Z,78.60
2023-01-04T13:57:21.957Z,77.60
2023-01-04T14:00:09.224Z,78.20
2023-01-04T14:03:16.090Z,77.10
2023-01-04T14:06:11.682Z,77.50
2023-01-04T14:09:10.634Z,76.50
2023-01-04T14:15:21.903Z,76.60
2023-01-04T14:18:25.995Z,74.90
2023-01-04T14:21:15.795Z,75.00
2023-01-04T14:24:01.677Z,75.50
2023-01-04T14:26:47.629Z,74.00
2023-01-04T14:29:34.474Z,74.20
2023-01-04T14:32:20.371Z,74.50
2023-01-04T14:35:10.629Z,74.00
2023-01-04T14:38:03.854Z,73.10
2023-01-04T14:40:49.905Z,73.70
2023-01-04T14:43:36.970Z,73.30
2023-01-04T14:46:23.285Z,73.60
2023-01-04T14:49:10.000Z,73.70
2023-01-04T14:51:57.117Z,74.20
2023-01-04T14:54:43.284Z,73.90
2023-01-04T14:57:29.055Z,73.90
2023-01-04T15:00:19.551Z,73.50
2023-01-04T15:03:06.455Z,74.00
2023-01-04T15:05:52.353Z,73.50
2023-01-04T15:08:38.318Z,73.80
2023-01-04T15:11:24.420Z,74.50
2023-01-04T15:14:10.362Z,75.10
2023-01-04T15:16:56.499Z,75.40
2023-01-04T15:19:42.729Z,75.40
2023-01-04T15:22:28.578Z,75.30
2023-01-04T15:25:14.746Z,76.00
2023-01-04T15:28:00.878Z,76.70
2023-01-04T15:30:47.010Z,76.80
2023-01-04T15:33:32.867Z,77.80
2023-01-04T15:36:23.893Z,77.80
2023-01-04T15:39:14.175Z,79.20
2023-01-04T15:42:19.126Z,79.60
2023-01-04T15:45:05.252Z,80.10
2023-01-04T15:47:51.524Z,80.90
2023-01-04T15:50:38.906Z,81.70
2023-01-04T15:53:24.656Z,82.50
2023-01-04T15:56:12.052Z,83.30
2023-01-04T15:58:57.955Z,83.60
2023-01-04T16:01:44.246Z,84.00
2023-01-04T16:04:30.600Z,84.80
2023-01-04T16:07:17.193Z,85.00
2023-01-04T16:10:03.524Z,85.60
2023-01-04T16:12:56.561Z,86.10
2023-01-04T16:15:43.090Z,86.30
2023-01-04T16:18:32.479Z,86.60
2023-01-04T16:21:21.719Z,87.10
2023-01-04T16:24:29.544Z,88.10
2023-01-04T16:27:15.316Z,88.60
2023-01-04T16:30:01.972Z,89.10
2023-01-04T16:32:47.648Z,89.60
2023-01-04T16:35:33.831Z,90.00
2023-01-04T16:38:21.546Z,90.10
2023-01-04T16:41:08.117Z,90.10
2023-01-04T16:43:55.426Z,90.20
2023-01-04T16:46:43.913Z,90.20
2023-01-04T16:49:30.210Z,90.20
2023-01-04T16:52:16.177Z,90.10
2023-01-04T16:55:02.347Z,90.00
2023-01-04T16:57:48.222Z,90.10
2023-01-04T17:00:34.276Z,90.30
2023-01-04T17:03:20.397Z,90.30
2023-01-04T17:06:13.887Z,90.40
2023-01-04T17:09:00.443Z,90.40
2023-01-04T17:12:45.520Z,90.50
2023-01-04T17:18:10.250Z,90.70
2023-01-04T17:21:11.142Z,90.80
2023-01-04T17:24:02.389Z,90.80
2023-01-04T17:26:48.316Z,90.90
2023-01-04T17:29:34.430Z,91.00
2023-01-04T17:32:20.320Z,91.30
2023-01-04T17:35:06.346Z,91.30
2023-01-04T17:37:52.346Z,91.40
2023-01-04T17:40:38.436Z,91.40
2023-01-04T17:43:24.358Z,91.40
2023-01-04T17:46:15.161Z,91.50
2023-01-04T17:52:14.901Z,91.60
2023-01-04T17:55:04.579Z,91.70
2023-01-04T17:57:50.526Z,91.70
2023-01-04T18:00:36.546Z,91.70
2023-01-04T18:03:22.699Z,91.80
2023-01-04T18:06:25.051Z,91.90
2023-01-04T18:09:13.355Z,92.00
2023-01-04T18:12:01.587Z,92.00
2023-01-04T18:14:47.957Z,92.20
2023-01-04T18:17:34.249Z,92.30
2023-01-04T18:20:25.480Z,92.20
2023-01-04T18:23:19.017Z,92.20
2023-01-04T18:26:10.905Z,92.20
2023-01-04T18:28:58.248Z,92.20
2023-01-04T18:31:44.087Z,92.20
2023-01-04T18:34:30.113Z,92.30
2023-01-04T18:37:18.435Z,92.20
2023-01-04T18:40:04.949Z,92.20
2023-01-04T18:42:51.317Z,92.20
2023-01-04T18:45:39.550Z,92.20
2023-01-04T18:48:25.450Z,92.10
2023-01-04T18:51:12.780Z,92.10
2023-01-04T18:53:58.343Z,92.10
2023-01-04T18:56:44.365Z,92.00
2023-01-04T18:59:30.874Z,91.90
2023-01-04T19:02:18.476Z,91.90
2023-01-04T19:05:04.827Z,91.90
2023-01-04T19:07:50.676Z,91.80
2023-01-04T19:10:36.947Z,91.80
2023-01-04T19:13:22.898Z,91.80
2023-01-04T19:16:10.233Z,91.70
2023-01-04T19:18:57.537Z,91.70
2023-01-04T19:21:43.525Z,91.70
2023-01-04T19:24:30.084Z,91.70
2023-01-04T19:27:16.141Z,91.80
2023-01-04T19:30:02.261Z,91.80
2023-01-04T19:32:48.180Z,91.90
2023-01-04T19:35:34.496Z,91.90
2023-01-04T19:38:20.785Z,91.90
2023-01-04T19:41:07.848Z,91.90
2023-01-04T19:43:53.890Z,91.90
2023-01-04T19:46:40.166Z,91.80
2023-01-04T19:49:26.538Z,91.80
2023-01-04T19:52:12.362Z,91.80
2023-01-04T19:54:58.482Z,91.80
2023-01-04T19:57:44.618Z,91.70
2023-01-04T20:00:30.610Z,91.80
2023-01-04T20:03:16.661Z,91.80
2023-01-04T20:06:03.589Z,91.70
2023-01-04T20:08:49.916Z,91.80
2023-01-04T20:11:35.830Z,91.80
2023-01-04T20:14:22.069Z,91.70
2023-01-04T20:17:07.877Z,91.50
2023-01-04T20:19:54.027Z,91.40
2023-01-04T20:22:40.029Z,91.30
2023-01-04T20:25:26.191Z,91.20
2023-01-04T20:28:12.363Z,91.10
2023-01-04T20:31:05.659Z,91.00
2023-01-04T20:33:51.532Z,91.00
2023-01-04T20:36:39.522Z,90.80
2023-01-04T20:39:25.470Z,90.90
2023-01-04T20:42:30.231Z,90.90
2023-01-04T20:45:16.123Z,90.80
2023-01-04T20:48:02.055Z,91.00
2023-01-04T20:50:48.168Z,90.70
2023-01-04T20:53:36.141Z,90.90
2023-01-04T20:56:23.097Z,90.90
2023-01-04T20:59:09.110Z,90.80
2023-01-04T21:01:55.298Z,90.80
2023-01-04T21:04:45.945Z,91.00
2023-01-04T21:07:31.813Z,90.80
2023-01-04T21:10:17.852Z,90.70
2023-01-04T21:13:03.892Z,90.70
2023-01-04T21:15:49.950Z,90.70
2023-01-04T21:18:35.972Z,91.00
2023-01-04T21:21:21.593Z,91.10
2023-01-04T21:24:07.715Z,91.30
2023-01-04T21:26:53.522Z,91.40
2023-01-04T21:29:39.446Z,91.40
2023-01-04T21:32:25.799Z,91.50
2023-01-04T21:35:12.029Z,91.70
2023-01-04T21:37:57.979Z,92.20
2023-01-04T21:40:44.059Z,92.60
2023-01-04T21:43:30.099Z,93.10
2023-01-04T21:46:16.348Z,93.50
2023-01-04T21:49:02.467Z,94.00
2023-01-04T21:51:48.673Z,94.70
2023-01-04T21:54:34.823Z,95.10
2023-01-04T21:57:20.969Z,95.60
2023-01-04T22:00:07.545Z,96.20
2023-01-04T22:02:53.743Z,96.90
2023-01-04T22:05:39.805Z,97.80
2023-01-04T22:08:25.880Z,98.40
2023-01-04T22:11:12.356Z,99.00
2023-01-04T22:13:58.277Z,99.20
2023-01-04T22:16:44.471Z,99.40
2023-01-04T22:19:30.504Z,99.50
2023-01-04T22:22:16.476Z,99.60
2023-01-04T22:25:02.565Z,99.60
2023-01-04T22:27:49.555Z,99.60
2023-01-04T22:30:35.353Z,99.70
2023-01-04T22:33:21.879Z,99.80
2023-01-04T22:36:21.251Z,99.80
2023-01-04T22:39:08.423Z,99.60
2023-01-04T22:41:54.122Z,99.50
2023-01-04T22:44:40.089Z,99.50
2023-01-04T22:47:26.143Z,99.30
2023-01-04T22:50:12.287Z,99.40
2023-01-04T22:52:58.123Z,99.40
2023-01-04T22:56:17.656Z,99.30
2023-01-04T22:58:53.285Z,99.20
2023-01-04T23:01:41.681Z,99.10
2023-01-04T23:04:27.635Z,98.80
2023-01-04T23:07:13.529Z,98.70
2023-01-04T23:09:59.605Z,98.60
2023-01-04T23:12:45.695Z,98.50
2023-01-04T23:15:31.705Z,98.40
2023-01-04T23:18:17.919Z,98.40
2023-01-04T23:21:04.576Z,98.30
2023-01-04T23:23:50.841Z,97.80
2023-01-04T23:26:36.881Z,97.60
2023-01-04T23:29:22.954Z,97.60
2023-01-04T23:32:09.116Z,97.30
2023-01-04T23:34:54.914Z,96.70
2023-01-04T23:37:40.914Z,96.70
2023-01-04T23:40:27.106Z,96.50
2023-01-04T23:43:12.973Z,96.50
2023-01-04T23:45:59.103Z,96.40
2023-01-04T23:48:45.143Z,96.30
2023-01-04T23:51:31.179Z,96.20
2023-01-04T23:54:17.789Z,96.20
2023-01-04T23:57:03.928Z,96.20
2023-01-04T23:59:49.787Z,96.10
